createdAt,value
2019-05-26T00:00:50.620Z,15.1
2019-05-26T00:01:50.587Z,15.04
2019-05-26T00:02:50.592Z,15.17
2019-05-26T00:03:50.822Z,15.1
2019-05-26T00:04:50.625Z,15.22
2019-05-26T00:05:50.596Z,15.14
2019-05-26T00:06:50.577Z,15.18
2019-05-26T00:07:50.912Z,14.97
2019-05-26T00:08:50.569Z,15.04
2019-05-26T00:09:50.700Z,15.12
2019-05-26T00:10:50.624Z,15.15
2019-05-26T00:11:50.720Z,15.17
2019-05-26T00:12:50.605Z,15.18
2019-05-26T00:13:50.604Z,15.15
2019-05-26T00:14:50.596Z,15.14
2019-05-26T00:15:51.044Z,15.25
2019-05-26T00:16:50.605Z,15.26
2019-05-26T00:17:50.673Z,15.32
2019-05-26T00:18:50.616Z,15.33
2019-05-26T00:19:51.358Z,15.17
2019-05-26T00:20:50.598Z,15.26
2019-05-26T00:21:50.603Z,15.22
2019-05-26T00:22:50.640Z,15.27
2019-05-26T00:23:50.593Z,15.27
2019-05-26T00:24:50.660Z,15.32
2019-05-26T00:25:59.121Z,15.26
2019-05-26T00:26:50.682Z,15.29
2019-05-26T00:27:51.217Z,15.23
2019-05-26T00:28:51.056Z,15.23
2019-05-26T00:29:50.978Z,15.17
2019-05-26T00:30:50.760Z,15.23
2019-05-26T00:31:50.827Z,15.18
2019-05-26T00:32:50.707Z,15.08
2019-05-26T00:33:51.346Z,15.04
2019-05-26T00:34:50.645Z,15.07
2019-05-26T00:35:50.622Z,15.11
2019-05-26T00:36:50.637Z,15.04
2019-05-26T00:37:55.387Z,14.94
2019-05-26T00:38:50.630Z,15.08
2019-05-26T00:39:50.641Z,15.04
2019-05-26T00:40:50.654Z,15.11
2019-05-26T00:41:50.668Z,15.02
2019-05-26T00:42:50.737Z,15.05
2019-05-26T00:43:50.660Z,15.07
2019-05-26T00:44:50.668Z,15.07
2019-05-26T00:45:50.648Z,15.04
2019-05-26T00:46:50.747Z,14.94
2019-05-26T00:47:50.643Z,15
2019-05-26T00:48:50.667Z,15.02
2019-05-26T00:49:50.669Z,14.97
2019-05-26T00:50:50.668Z,14.89
2019-05-26T00:51:50.656Z,15
2019-05-26T00:52:50.764Z,15
2019-05-26T00:53:50.763Z,14.93
2019-05-26T00:54:50.652Z,14.92
2019-05-26T00:56:01.168Z,15
2019-05-26T00:56:50.679Z,14.93
2019-05-26T00:57:50.645Z,14.99
2019-05-26T00:58:50.702Z,14.96
2019-05-26T00:59:50.677Z,14.96
2019-05-26T01:00:50.686Z,14.79
2019-05-26T01:01:50.651Z,14.59
2019-05-26T01:02:50.770Z,14.58
2019-05-26T01:03:50.727Z,14.66
2019-05-26T01:04:50.714Z,14.67
2019-05-26T01:05:50.714Z,14.63
2019-05-26T01:06:50.707Z,14.59
2019-05-26T01:08:07.792Z,14.48
2019-05-26T01:08:50.679Z,14.38
2019-05-26T01:09:50.686Z,14.38
2019-05-26T01:10:50.709Z,14.37
2019-05-26T01:11:50.738Z,14.16
2019-05-26T01:12:50.760Z,14.13
2019-05-26T01:13:50.865Z,14.03
2019-05-26T01:14:50.694Z,14.01
2019-05-26T01:15:50.781Z,14.26
2019-05-26T01:16:50.691Z,14.26
2019-05-26T01:17:51.232Z,14.18
2019-05-26T01:18:50.763Z,14.16
2019-05-26T01:19:50.792Z,14.25
2019-05-26T01:20:50.739Z,14.3
2019-05-26T01:21:50.725Z,14.15
2019-05-26T01:22:53.675Z,14.15
2019-05-26T01:23:50.713Z,14.2
2019-05-26T01:24:50.779Z,14.28
2019-05-26T01:26:01.730Z,14.13
2019-05-26T01:26:50.715Z,14.16
2019-05-26T01:27:50.749Z,14.11
2019-05-26T01:28:50.726Z,14.03
2019-05-26T01:29:50.732Z,14.07
2019-05-26T01:30:51.046Z,14.13
2019-05-26T01:31:50.722Z,14.11
2019-05-26T01:32:50.773Z,14.11
2019-05-26T01:33:50.721Z,14.2
2019-05-26T01:34:50.722Z,13.98
2019-05-26T01:35:50.729Z,14.07
2019-05-26T01:36:50.757Z,14.15
2019-05-26T01:37:50.723Z,14.04
2019-05-26T01:38:50.770Z,14.08
2019-05-26T01:39:50.741Z,14.01
2019-05-26T01:40:50.762Z,13.97
2019-05-26T01:41:50.844Z,13.89
2019-05-26T01:42:50.752Z,13.82
2019-05-26T01:43:50.768Z,13.87
2019-05-26T01:44:50.770Z,13.79
2019-05-26T01:45:50.741Z,14
2019-05-26T01:46:50.728Z,14.05
2019-05-26T01:47:50.766Z,14.01
2019-05-26T01:48:50.766Z,13.98
2019-05-26T01:49:50.749Z,14.01
2019-05-26T01:50:50.772Z,13.83
2019-05-26T01:51:51.101Z,13.82
2019-05-26T01:52:50.786Z,13.83
2019-05-26T01:53:50.754Z,13.67
2019-05-26T01:54:50.755Z,13.68
2019-05-26T01:55:50.839Z,13.71
2019-05-26T01:56:50.811Z,13.89
2019-05-26T01:57:50.760Z,13.94
2019-05-26T01:58:50.762Z,13.78
2019-05-26T01:59:50.853Z,13.78
2019-05-26T02:00:50.802Z,13.78
2019-05-26T02:01:50.884Z,13.8
2019-05-26T02:02:50.771Z,13.78
2019-05-26T02:03:50.796Z,13.71
2019-05-26T02:04:50.955Z,13.7
2019-05-26T02:05:50.811Z,13.58
2019-05-26T02:06:50.818Z,13.46
2019-05-26T02:07:50.885Z,13.46
2019-05-26T02:08:50.827Z,13.39
2019-05-26T02:09:51.233Z,13.36
2019-05-26T02:10:50.821Z,13.42
2019-05-26T02:11:50.898Z,13.54
2019-05-26T02:12:50.884Z,13.42
2019-05-26T02:13:50.821Z,13.45
2019-05-26T02:14:50.869Z,13.39
2019-05-26T02:15:51.269Z,13.52
2019-05-26T02:16:50.985Z,13.55
2019-05-26T02:17:50.801Z,13.49
2019-05-26T02:18:50.794Z,13.45
2019-05-26T02:19:50.819Z,13.46
2019-05-26T02:20:50.835Z,13.62
2019-05-26T02:21:50.826Z,13.52
2019-05-26T02:22:50.821Z,13.54
2019-05-26T02:23:50.806Z,13.67
2019-05-26T02:24:50.795Z,13.71
2019-05-26T02:25:51.536Z,13.57
2019-05-26T02:26:50.877Z,13.45
2019-05-26T02:32:07.814Z,13.36
2019-05-26T02:33:18.849Z,13.21
2019-05-26T02:34:18.826Z,13.24
2019-05-26T02:35:18.806Z,13.17
2019-05-26T02:36:18.776Z,13.3
2019-05-26T02:37:18.824Z,13.02
2019-05-26T02:38:18.813Z,13.01
2019-05-26T02:39:18.794Z,12.88
2019-05-26T02:40:18.847Z,12.9
2019-05-26T02:41:18.812Z,12.88
2019-05-26T02:42:18.845Z,12.98
2019-05-26T02:43:18.865Z,12.87
2019-05-26T02:44:18.898Z,12.75
2019-05-26T02:45:18.815Z,12.78
2019-05-26T02:46:18.842Z,12.83
2019-05-26T02:47:18.790Z,12.95
2019-05-26T02:48:18.861Z,12.87
2019-05-26T02:49:18.782Z,12.95
2019-05-26T02:50:19.086Z,12.88
2019-05-26T02:51:18.821Z,12.9
2019-05-26T02:52:18.824Z,12.75
2019-05-26T02:53:18.805Z,12.72
2019-05-26T02:54:19.015Z,12.68
2019-05-26T02:55:18.840Z,12.61
2019-05-26T02:56:19.300Z,12.65
2019-05-26T02:57:18.817Z,12.65
2019-05-26T02:58:18.841Z,12.72
2019-05-26T02:59:18.857Z,12.86
2019-05-26T03:00:18.851Z,12.75
2019-05-26T03:01:18.873Z,12.63
2019-05-26T03:02:18.834Z,12.87
2019-05-26T03:03:18.852Z,12.75
2019-05-26T03:04:18.839Z,12.48
2019-05-26T03:05:18.832Z,12.62
2019-05-26T03:06:18.877Z,12.66
2019-05-26T03:07:18.913Z,12.65
2019-05-26T03:08:18.890Z,12.54
2019-05-26T03:09:28.549Z,12.53
2019-05-26T03:10:18.885Z,12.45
2019-05-26T03:11:18.968Z,12.5
2019-05-26T03:12:18.858Z,12.48
2019-05-26T03:13:18.859Z,12.61
2019-05-26T03:14:18.873Z,12.58
2019-05-26T03:15:18.898Z,12.47
2019-05-26T03:16:18.945Z,12.53
2019-05-26T03:17:20.584Z,12.57
2019-05-26T03:18:18.849Z,12.62
2019-05-26T03:19:18.881Z,12.61
2019-05-26T03:20:19.032Z,12.63
2019-05-26T03:21:18.869Z,12.66
2019-05-26T03:22:18.899Z,12.36
2019-05-26T03:23:18.888Z,12.39
2019-05-26T03:24:18.872Z,12.35
2019-05-26T03:25:18.918Z,12.47
2019-05-26T03:26:18.992Z,12.44
2019-05-26T03:27:18.865Z,12.62
2019-05-26T03:28:18.986Z,12.33
2019-05-26T03:29:18.898Z,12.33
2019-05-26T03:30:18.888Z,12.3
2019-05-26T03:31:18.892Z,12.23
2019-05-26T03:32:18.951Z,12.33
2019-05-26T03:33:19.252Z,12.33
2019-05-26T03:34:18.909Z,12.32
2019-05-26T03:35:18.944Z,12.21
2019-05-26T03:36:19.217Z,12.33
2019-05-26T03:37:18.928Z,12.36
2019-05-26T03:38:18.898Z,12.4
2019-05-26T03:39:18.895Z,12.47
2019-05-26T03:40:18.928Z,12.25
2019-05-26T03:41:34.679Z,12.25
2019-05-26T03:42:34.991Z,12.14
2019-05-26T03:43:34.692Z,12.32
2019-05-26T03:44:34.717Z,12.33
2019-05-26T03:45:34.664Z,12.39
2019-05-26T03:46:34.862Z,12.36
2019-05-26T03:47:35.047Z,12.39
2019-05-26T03:48:34.644Z,12.35
2019-05-26T03:49:34.677Z,12.3
2019-05-26T03:50:34.697Z,12.33
2019-05-26T03:51:34.707Z,12.39
2019-05-26T03:52:34.696Z,12.45
2019-05-26T03:53:34.663Z,12.57
2019-05-26T03:54:34.723Z,12.53
2019-05-26T03:55:34.712Z,12.62
2019-05-26T03:56:34.747Z,12.54
2019-05-26T03:57:34.728Z,12.43
2019-05-26T03:58:34.733Z,12.45
2019-05-26T03:59:34.727Z,12.43
2019-05-26T04:00:35.024Z,12.4
2019-05-26T04:01:34.705Z,12.4
2019-05-26T04:02:34.730Z,12.33
2019-05-26T04:03:34.719Z,12.32
2019-05-26T04:04:34.827Z,12.33
2019-05-26T04:05:34.750Z,12.29
2019-05-26T04:06:36.036Z,12.4
2019-05-26T04:07:34.698Z,12.48
2019-05-26T04:08:34.758Z,12.43
2019-05-26T04:09:34.714Z,12.47
2019-05-26T04:10:34.717Z,12.66
2019-05-26T04:11:34.850Z,12.62
2019-05-26T04:12:34.733Z,12.62
2019-05-26T04:13:34.738Z,12.57
2019-05-26T04:14:34.680Z,12.55
2019-05-26T04:15:34.764Z,12.66
2019-05-26T04:16:34.721Z,12.68
2019-05-26T04:17:34.803Z,12.68
2019-05-26T04:18:34.710Z,12.81
2019-05-26T04:23:03.942Z,12.78
2019-05-26T04:24:03.989Z,12.87
2019-05-26T04:26:26.458Z,12.87
2019-05-26T04:27:25.736Z,12.9
2019-05-26T04:28:18.088Z,12.98
2019-05-26T04:29:17.575Z,12.98
2019-05-26T04:30:17.584Z,12.98
2019-05-26T04:31:17.593Z,12.99
2019-05-26T04:32:17.749Z,12.95
2019-05-26T04:33:17.566Z,12.94
2019-05-26T04:34:17.552Z,13.06
2019-05-26T04:35:17.578Z,13.02
2019-05-26T04:36:17.559Z,13.12
2019-05-26T04:37:17.817Z,13.09
2019-05-26T04:38:17.597Z,13.09
2019-05-26T04:39:17.586Z,13.11
2019-05-26T04:40:31.187Z,13.17
2019-05-26T04:41:17.639Z,13.19
2019-05-26T04:42:17.704Z,13.2
2019-05-26T04:43:20.451Z,13.11
2019-05-26T04:44:17.616Z,13.2
2019-05-26T04:45:17.583Z,13.17
2019-05-26T04:46:17.602Z,13.19
2019-05-26T04:47:17.577Z,13.21
2019-05-26T04:48:17.714Z,13.21
2019-05-26T04:49:17.572Z,13.21
2019-05-26T04:50:17.945Z,13.3
2019-05-26T04:51:17.580Z,13.28
2019-05-26T04:52:17.627Z,13.16
2019-05-26T04:53:17.638Z,13.19
2019-05-26T04:54:17.575Z,13.37
2019-05-26T04:55:17.608Z,13.36
2019-05-26T04:56:25.901Z,13.47
2019-05-26T04:57:17.590Z,13.45
2019-05-26T04:58:17.703Z,13.52
2019-05-26T04:59:17.610Z,13.58
2019-05-26T05:00:17.593Z,13.55
2019-05-26T05:01:17.620Z,13.7
2019-05-26T05:02:17.704Z,13.7
2019-05-26T05:03:17.588Z,13.8
2019-05-26T05:04:17.617Z,13.82
2019-05-26T05:05:17.644Z,13.75
2019-05-26T05:06:17.650Z,13.8
2019-05-26T05:07:17.596Z,13.8
2019-05-26T05:08:17.604Z,13.82
2019-05-26T05:09:17.648Z,13.95
2019-05-26T05:10:17.655Z,13.85
2019-05-26T05:11:17.646Z,13.94
2019-05-26T05:12:17.668Z,13.91
2019-05-26T05:13:17.653Z,13.95
2019-05-26T05:14:17.665Z,14.03
2019-05-26T05:15:17.649Z,13.93
2019-05-26T05:16:17.656Z,14.04
2019-05-26T05:17:17.627Z,14.08
2019-05-26T05:18:17.734Z,14.12
2019-05-26T05:19:17.656Z,14.19
2019-05-26T05:20:17.642Z,14.25
2019-05-26T05:21:17.627Z,14.3
2019-05-26T05:22:17.681Z,14.38
2019-05-26T05:23:17.884Z,14.41
2019-05-26T05:24:17.625Z,14.43
2019-05-26T05:25:20.363Z,14.48
2019-05-26T05:26:26.551Z,14.52
2019-05-26T05:27:17.645Z,14.56
2019-05-26T05:28:17.690Z,14.58
2019-05-26T05:29:17.697Z,14.73
2019-05-26T05:30:17.692Z,14.77
2019-05-26T05:31:17.710Z,14.82
2019-05-26T05:32:17.637Z,14.61
2019-05-26T05:33:17.700Z,14.81
2019-05-26T05:34:17.677Z,14.79
2019-05-26T05:35:17.660Z,14.85
2019-05-26T05:36:17.689Z,14.73
2019-05-26T05:37:17.729Z,14.85
2019-05-26T05:38:17.700Z,14.92
2019-05-26T05:39:17.725Z,14.96
2019-05-26T05:40:17.653Z,14.99
2019-05-26T05:41:17.680Z,15.04
2019-05-26T05:42:17.666Z,15.04
2019-05-26T05:43:17.693Z,15.11
2019-05-26T05:44:17.679Z,15.14
2019-05-26T05:45:17.712Z,15.26
2019-05-26T05:46:17.648Z,15.32
2019-05-26T05:47:17.744Z,15.36
2019-05-26T05:48:17.821Z,15.44
2019-05-26T05:49:17.713Z,15.51
2019-05-26T05:50:17.715Z,15.51
2019-05-26T05:51:17.747Z,15.57
2019-05-26T05:52:17.725Z,15.5
2019-05-26T05:53:17.694Z,15.65
2019-05-26T05:54:17.720Z,15.5
2019-05-26T05:55:17.759Z,15.73
2019-05-26T05:56:17.718Z,15.85
2019-05-26T05:57:17.749Z,15.87
2019-05-26T05:58:17.701Z,15.92
2019-05-26T05:59:17.911Z,15.99
2019-05-26T06:00:18.308Z,16.03
2019-05-26T06:01:18.604Z,15.81
2019-05-26T06:02:17.722Z,15.94
2019-05-26T06:03:21.378Z,16.08
2019-05-26T06:04:17.738Z,16.03
2019-05-26T06:05:20.280Z,16.18
2019-05-26T06:06:17.691Z,16.1
2019-05-26T06:07:17.779Z,16.17
2019-05-26T06:08:17.917Z,16.13
2019-05-26T06:09:17.734Z,16.26
2019-05-26T06:10:18.046Z,16.22
2019-05-26T06:11:21.783Z,16.18
2019-05-26T06:12:17.753Z,16
2019-05-26T06:13:19.024Z,16.29
2019-05-26T06:14:17.744Z,16.41
2019-05-26T06:15:20.393Z,16.58
2019-05-26T06:16:21.590Z,16.74
2019-05-26T06:17:18.895Z,16.73
2019-05-26T06:18:18.052Z,16.8
2019-05-26T06:19:19.171Z,16.94
2019-05-26T06:20:17.785Z,17.07
2019-05-26T06:21:17.723Z,17.13
2019-05-26T06:22:17.812Z,17.09
2019-05-26T06:23:17.756Z,17.17
2019-05-26T06:24:17.954Z,17.2
2019-05-26T06:25:18.525Z,17.23
2019-05-26T06:26:17.783Z,17.53
2019-05-26T06:27:17.793Z,17.39
2019-05-26T06:28:17.755Z,17.5
2019-05-26T06:29:18.070Z,17.56
2019-05-26T06:30:17.793Z,17.82
2019-05-26T06:31:17.838Z,18.3
2019-05-26T06:32:18.503Z,18.55
2019-05-26T06:33:17.771Z,18.7
2019-05-26T06:34:17.845Z,18.86
2019-05-26T06:35:17.787Z,19.16
2019-05-26T06:36:17.768Z,19.55
2019-05-26T06:37:17.798Z,19.62
2019-05-26T06:38:17.763Z,19.92
2019-05-26T06:39:17.787Z,20.22
2019-05-26T06:40:17.775Z,20.5
2019-05-26T06:41:34.796Z,20.42
2019-05-26T06:42:18.590Z,20.42
2019-05-26T06:43:17.818Z,20.56
2019-05-26T06:44:17.874Z,20.08
2019-05-26T06:45:17.791Z,20.19
2019-05-26T06:46:17.834Z,19.87
2019-05-26T06:47:17.797Z,20.15
2019-05-26T06:48:17.787Z,20.29
2019-05-26T06:49:17.748Z,20.19
2019-05-26T06:50:17.886Z,20.21
2019-05-26T06:51:17.771Z,20.46
2019-05-26T06:52:17.839Z,20.42
2019-05-26T06:53:17.942Z,19.9
2019-05-26T06:54:17.805Z,20.08
2019-05-26T06:55:17.778Z,19.96
2019-05-26T06:56:17.801Z,19.75
2019-05-26T06:57:17.962Z,20.11
2019-05-26T06:58:17.781Z,19.74
2019-05-26T06:59:17.791Z,20
2019-05-26T07:00:17.835Z,19.63
2019-05-26T07:01:17.803Z,19.32
2019-05-26T07:02:17.848Z,19.93
2019-05-26T07:03:17.811Z,20.46
2019-05-26T07:04:17.840Z,20.85
2019-05-26T07:05:21.104Z,20.77
2019-05-26T07:06:17.811Z,20.24
2019-05-26T07:07:17.862Z,20.8
2019-05-26T07:08:17.892Z,21.15
2019-05-26T07:09:17.861Z,21.43
2019-05-26T07:10:17.843Z,21.41
2019-05-26T07:11:17.831Z,21.37
2019-05-26T07:12:17.816Z,21.69
2019-05-26T07:13:17.837Z,21.72
2019-05-26T07:14:17.824Z,21.45
2019-05-26T07:15:17.874Z,21.62
2019-05-26T07:16:17.858Z,21.81
2019-05-26T07:17:20.438Z,21.94
2019-05-26T07:18:17.874Z,21.87
2019-05-26T07:19:18.054Z,21.69
2019-05-26T07:20:17.823Z,21.8
2019-05-26T07:21:17.893Z,21.62
2019-05-26T07:22:17.880Z,21.81
2019-05-26T07:23:18.115Z,21.94
2019-05-26T07:24:17.870Z,21.87
2019-05-26T07:25:17.899Z,21.92
2019-05-26T07:26:17.888Z,21.5
2019-05-26T07:27:17.918Z,21.81
2019-05-26T07:28:17.900Z,21.94
2019-05-26T07:29:17.927Z,22
2019-05-26T07:30:17.875Z,21.78
2019-05-26T07:31:17.858Z,22.25
2019-05-26T07:32:18.324Z,22.08
2019-05-26T07:33:17.935Z,22.03
2019-05-26T07:34:18.007Z,22.21
2019-05-26T07:35:17.850Z,22.03
2019-05-26T07:36:17.831Z,22.14
2019-05-26T07:37:18.408Z,22.14
2019-05-26T07:38:20.058Z,21.7
2019-05-26T07:39:17.869Z,21.72
2019-05-26T07:40:17.887Z,22.03
2019-05-26T07:41:17.899Z,21.81
2019-05-26T07:42:17.912Z,21.7
2019-05-26T07:43:18.061Z,21.83
2019-05-26T07:44:17.866Z,22
2019-05-26T07:45:17.874Z,22.14
2019-05-26T07:46:17.887Z,22.4
2019-05-26T07:47:18.145Z,22.41
2019-05-26T07:48:29.714Z,22.34
2019-05-26T07:49:18.370Z,22.28
2019-05-26T07:50:17.903Z,21.75
2019-05-26T07:51:19.874Z,22.08
2019-05-26T07:52:17.917Z,22.25
2019-05-26T07:53:17.899Z,22.33
2019-05-26T07:54:30.407Z,22.52
2019-05-26T07:55:17.898Z,22.44
2019-05-26T07:56:17.892Z,22.65
2019-05-26T07:57:17.938Z,22.03
2019-05-26T07:58:17.913Z,22.19
2019-05-26T07:59:17.899Z,22.63
2019-05-26T08:00:17.926Z,22.33
2019-05-26T08:01:17.977Z,22.63
2019-05-26T08:02:17.973Z,22.56
2019-05-26T08:03:17.906Z,22.73
2019-05-26T08:04:17.932Z,22.49
2019-05-26T08:05:18.036Z,22.36
2019-05-26T08:06:18.013Z,22.12
2019-05-26T08:07:17.923Z,21.84
2019-05-26T08:08:19.106Z,22.28
2019-05-26T08:09:17.982Z,22.61
2019-05-26T08:10:17.946Z,22.7
2019-05-26T08:11:17.930Z,22.65
2019-05-26T08:12:33.381Z,22.25
2019-05-26T08:13:17.932Z,22.62
2019-05-26T08:14:17.929Z,22.84
2019-05-26T08:15:17.961Z,23.4
2019-05-26T08:16:17.942Z,23.26
2019-05-26T08:17:17.971Z,23.28
2019-05-26T08:18:17.920Z,23.4
2019-05-26T08:19:17.926Z,23.39
2019-05-26T08:20:18.013Z,23.49
2019-05-26T08:21:17.980Z,23.52
2019-05-26T08:22:17.952Z,23.66
2019-05-26T08:23:18.053Z,23.82
2019-05-26T08:24:17.954Z,23.94
2019-05-26T08:25:17.927Z,23.95
2019-05-26T08:26:18.361Z,23.66
2019-05-26T08:27:18.047Z,23.91
2019-05-26T08:28:21.899Z,23.92
2019-05-26T08:29:17.937Z,23.77
2019-05-26T08:30:17.998Z,23.94
2019-05-26T08:31:18.731Z,23.84
2019-05-26T08:32:20.373Z,23.99
2019-05-26T08:33:17.980Z,24.31
2019-05-26T08:34:17.967Z,24.31
2019-05-26T08:35:17.974Z,24.47
2019-05-26T08:36:17.936Z,24.5
2019-05-26T08:37:17.988Z,24.46
2019-05-26T08:38:17.992Z,24.61
2019-05-26T08:39:17.998Z,24.31
2019-05-26T08:40:18.093Z,24.22
2019-05-26T08:41:18.286Z,24.75
2019-05-26T08:42:47.880Z,24.24
2019-05-26T08:43:19.362Z,24.55
2019-05-26T08:44:18.601Z,24.32
2019-05-26T08:45:21.351Z,24.4
2019-05-26T08:46:17.982Z,24.99
2019-05-26T08:47:18.088Z,24.41
2019-05-26T08:48:17.995Z,24.53
2019-05-26T08:49:17.992Z,24.85
2019-05-26T08:50:18.015Z,24.89
2019-05-26T08:51:18.020Z,25.34
2019-05-26T08:52:18.049Z,25.18
2019-05-26T08:53:18.132Z,25.44
2019-05-26T08:54:18.040Z,25.29
2019-05-26T08:55:18.025Z,24.65
2019-05-26T08:56:18.018Z,25
2019-05-26T08:57:18.339Z,24.86
2019-05-26T08:58:18.229Z,25.22
2019-05-26T08:59:18.021Z,25.39
2019-05-26T09:00:18.013Z,24.97
2019-05-26T09:01:18.037Z,25.31
2019-05-26T09:02:18.051Z,25.04
2019-05-26T09:06:46.851Z,25.85
2019-05-26T09:07:46.814Z,25.92
2019-05-26T09:08:46.819Z,25.77
2019-05-26T09:09:46.824Z,25.8
2019-05-26T09:10:46.841Z,25.48
2019-05-26T09:11:46.860Z,25.37
2019-05-26T09:13:02.145Z,25.71
2019-05-26T09:18:05.191Z,25.43
2019-05-26T09:18:16.165Z,25.55
2019-05-26T09:19:16.172Z,25.56
2019-05-26T09:20:17.224Z,25.62
2019-05-26T09:21:16.231Z,25.96
2019-05-26T09:22:16.264Z,26.16
2019-05-26T09:23:16.262Z,25.86
2019-05-26T09:24:16.287Z,26.11
2019-05-26T09:25:16.176Z,26.07
2019-05-26T09:26:16.159Z,25.77
2019-05-26T09:27:16.254Z,25.68
2019-05-26T09:28:16.246Z,25.99
2019-05-26T09:29:16.683Z,26.11
2019-05-26T09:30:16.178Z,26.34
2019-05-26T09:31:16.163Z,26.39
2019-05-26T09:32:16.253Z,26.24
2019-05-26T09:33:16.486Z,25.78
2019-05-26T09:34:16.182Z,25.76
2019-05-26T09:35:16.233Z,25.98
2019-05-26T09:36:16.195Z,25.96
2019-05-26T09:37:16.182Z,25.78
2019-05-26T09:38:16.232Z,25.71
2019-05-26T09:39:16.241Z,25.67
2019-05-26T09:40:16.167Z,25.81
2019-05-26T09:41:16.474Z,25.41
2019-05-26T09:42:16.255Z,25.56
2019-05-26T09:43:21.750Z,25.36
2019-05-26T09:44:16.166Z,25.76
2019-05-26T09:45:16.182Z,25.39
2019-05-26T09:46:16.183Z,25.98
2019-05-26T09:47:16.186Z,25.59
2019-05-26T09:48:16.262Z,25.76
2019-05-26T09:49:16.200Z,25.78
2019-05-26T09:50:16.194Z,25.51
2019-05-26T09:51:16.216Z,25.63
2019-05-26T09:52:16.189Z,25.25
2019-05-26T09:53:16.272Z,25.25
2019-05-26T09:54:18.065Z,24.56
2019-05-26T09:55:16.165Z,24.96
2019-05-26T09:56:16.206Z,25.11
2019-05-26T09:57:16.217Z,24.56
2019-05-26T09:58:16.248Z,24.89
2019-05-26T09:59:16.262Z,24.84
2019-05-26T10:00:18.844Z,24.77
2019-05-26T10:01:16.226Z,24.24
2019-05-26T10:02:16.260Z,24.25
2019-05-26T10:03:16.220Z,23.94
2019-05-26T10:04:16.190Z,24.07
2019-05-26T10:05:16.231Z,24.59
2019-05-26T10:06:16.229Z,24.78
2019-05-26T10:07:21.182Z,25.03
2019-05-26T10:08:16.232Z,24.94
2019-05-26T10:09:16.229Z,25.34
2019-05-26T10:10:16.328Z,25.54
2019-05-26T10:11:16.273Z,25.51
2019-05-26T10:12:16.275Z,25.77
2019-05-26T10:13:29.092Z,25.74
2019-05-26T10:14:16.217Z,25.89
2019-05-26T10:15:16.306Z,25.83
2019-05-26T10:16:16.251Z,25.96
2019-05-26T10:17:32.272Z,26.16
2019-05-26T10:18:32.462Z,26.37
2019-05-26T10:19:31.938Z,25.99
2019-05-26T10:20:32.000Z,26.31
2019-05-26T10:21:32.197Z,26.53
2019-05-26T10:22:31.960Z,26.19
2019-05-26T10:23:31.937Z,25.95
2019-05-26T10:24:31.950Z,26.11
2019-05-26T10:25:32.000Z,25.93
2019-05-26T10:26:31.979Z,26.18
2019-05-26T10:27:31.995Z,26.33
2019-05-26T10:28:31.962Z,25.95
2019-05-26T10:29:31.940Z,26.44
2019-05-26T10:30:32.032Z,26.56
2019-05-26T10:31:32.246Z,26.31
2019-05-26T10:32:31.987Z,26.04
2019-05-26T10:33:32.008Z,25.52
2019-05-26T10:34:31.960Z,26.26
2019-05-26T10:35:31.990Z,26.41
2019-05-26T10:36:32.015Z,25.76
2019-05-26T10:37:31.995Z,26.1
2019-05-26T10:38:31.986Z,26.26
2019-05-26T10:39:32.090Z,26.79
2019-05-26T10:40:32.022Z,26.88
2019-05-26T10:41:32.079Z,26.13
2019-05-26T10:42:32.005Z,25.73
2019-05-26T10:43:46.164Z,26.37
2019-05-26T10:44:32.000Z,26.3
2019-05-26T10:45:34.231Z,26.27
2019-05-26T10:46:31.976Z,26.7
2019-05-26T10:47:32.020Z,26.91
2019-05-26T10:48:32.188Z,26.83
2019-05-26T10:49:32.014Z,27.03
2019-05-26T10:50:31.997Z,26.66
2019-05-26T10:51:32.066Z,25.89
2019-05-26T10:52:32.053Z,26.26
2019-05-26T10:53:32.046Z,26.55
2019-05-26T10:54:32.023Z,26.39
2019-05-26T10:55:32.115Z,26.76
2019-05-26T10:56:32.103Z,26.97
2019-05-26T10:57:32.121Z,26.79
2019-05-26T10:58:32.003Z,26.83
2019-05-26T10:59:33.917Z,26.27
2019-05-26T11:00:35.836Z,26.76
2019-05-26T11:01:32.108Z,25.88
2019-05-26T11:02:32.055Z,26.7
2019-05-26T11:03:32.630Z,26.85
2019-05-26T11:04:32.069Z,26.92
2019-05-26T11:05:32.051Z,26.66
2019-05-26T11:06:32.365Z,26.91
2019-05-26T11:07:32.270Z,26.7
2019-05-26T11:08:32.089Z,27.2
2019-05-26T11:09:32.017Z,27.08
2019-05-26T11:10:32.043Z,26.96
2019-05-26T11:11:32.094Z,27.28
2019-05-26T11:12:32.042Z,27.45
2019-05-26T11:13:32.065Z,27.08
2019-05-26T11:14:32.071Z,26.71
2019-05-26T11:15:32.118Z,26.79
2019-05-26T11:16:32.188Z,26.85
2019-05-26T11:17:32.133Z,26.71
2019-05-26T11:18:32.132Z,26.74
2019-05-26T11:19:32.060Z,26.42
2019-05-26T11:20:32.089Z,26.23
2019-05-26T11:21:32.220Z,26.76
2019-05-26T11:22:32.062Z,27
2019-05-26T11:23:32.163Z,26.45
2019-05-26T11:24:32.115Z,25.54
2019-05-26T11:25:32.085Z,25.95
2019-05-26T11:26:32.232Z,25.52
2019-05-26T11:31:48.989Z,25.68
2019-05-26T11:32:00.099Z,26.22
2019-05-26T11:33:02.293Z,26.59
2019-05-26T11:34:00.021Z,26.6
2019-05-26T11:35:06.996Z,26.41
2019-05-26T11:36:00.039Z,26.42
2019-05-26T11:36:59.972Z,26.13
2019-05-26T11:38:00.008Z,26.56
2019-05-26T11:39:00.034Z,26.67
2019-05-26T11:39:59.984Z,26.86
2019-05-26T11:42:15.703Z,26.98
2019-05-26T11:42:26.804Z,27.01
2019-05-26T11:43:26.730Z,27.05
2019-05-26T11:44:26.699Z,27.43
2019-05-26T11:45:26.707Z,27.18
2019-05-26T11:46:26.769Z,27.26
2019-05-26T11:47:26.783Z,27.34
2019-05-26T11:48:27.034Z,27.45
2019-05-26T11:49:26.853Z,27.85
2019-05-26T11:50:26.732Z,27.3
2019-05-26T11:51:26.742Z,26.67
2019-05-26T11:52:26.763Z,26.42
2019-05-26T11:53:26.866Z,26.56
2019-05-26T11:54:26.809Z,26.53
2019-05-26T11:55:30.274Z,26.82
2019-05-26T11:56:26.709Z,26.97
2019-05-26T11:57:30.259Z,27.23
2019-05-26T11:58:26.783Z,26.86
2019-05-26T11:59:26.727Z,27.16
2019-05-26T12:00:26.744Z,27.1
2019-05-26T12:01:28.399Z,27.63
2019-05-26T12:02:26.785Z,27.53
2019-05-26T12:03:26.792Z,27.98
2019-05-26T12:04:26.756Z,27.95
2019-05-26T12:05:26.866Z,27.44
2019-05-26T12:06:26.775Z,27.94
2019-05-26T12:07:26.805Z,27.93
2019-05-26T12:08:26.873Z,27.44
2019-05-26T12:09:26.872Z,27.82
2019-05-26T12:10:26.786Z,28.06
2019-05-26T12:11:26.810Z,27.98
2019-05-26T12:12:26.798Z,28.09
2019-05-26T12:13:26.828Z,28.13
2019-05-26T12:14:40.122Z,27.67
2019-05-26T12:15:26.816Z,28.03
2019-05-26T12:16:28.815Z,27.94
2019-05-26T12:17:26.870Z,27.75
2019-05-26T12:18:26.861Z,27.63
2019-05-26T12:19:26.821Z,27.66
2019-05-26T12:20:26.903Z,27.44
2019-05-26T12:21:26.872Z,27.81
2019-05-26T12:22:26.822Z,27.61
2019-05-26T12:23:26.886Z,27.53
2019-05-26T12:24:26.797Z,27.71
2019-05-26T12:25:26.843Z,27.9
2019-05-26T12:26:26.785Z,27.22
2019-05-26T12:27:26.848Z,27.11
2019-05-26T12:28:26.877Z,27.48
2019-05-26T12:29:26.839Z,27.38
2019-05-26T12:30:26.843Z,27.47
2019-05-26T12:31:26.809Z,27.34
2019-05-26T12:32:26.836Z,26.91
2019-05-26T12:33:26.864Z,27.11
2019-05-26T12:34:26.877Z,26.74
2019-05-26T12:35:26.862Z,26.18
2019-05-26T12:36:26.889Z,26.16
2019-05-26T12:37:26.912Z,26.48
2019-05-26T12:38:26.865Z,26.51
2019-05-26T12:39:26.812Z,26.08
2019-05-26T12:40:26.875Z,26.24
2019-05-26T12:41:26.798Z,25.85
2019-05-26T12:42:26.901Z,25.93
2019-05-26T12:43:26.868Z,26.04
2019-05-26T12:44:26.865Z,26.16
2019-05-26T12:45:26.905Z,26.49
2019-05-26T12:46:26.870Z,26.11
2019-05-26T12:47:27.269Z,25.78
2019-05-26T12:48:26.886Z,25.92
2019-05-26T12:49:30.294Z,25.77
2019-05-26T12:50:26.883Z,25.92
2019-05-26T12:51:26.902Z,26.24
2019-05-26T12:52:26.896Z,26.49
2019-05-26T12:53:27.183Z,26.85
2019-05-26T12:54:26.860Z,26.98
2019-05-26T12:55:26.876Z,27
2019-05-26T12:56:26.894Z,27.22
2019-05-26T12:57:26.920Z,26.98
2019-05-26T12:58:26.932Z,27.34
2019-05-26T12:59:26.873Z,27.34
2019-05-26T13:00:26.902Z,27.45
2019-05-26T13:01:26.896Z,27.28
2019-05-26T13:02:26.924Z,27.61
2019-05-26T13:03:27.197Z,27.43
2019-05-26T13:04:26.910Z,27.33
2019-05-26T13:05:26.892Z,27.26
2019-05-26T13:06:26.899Z,27.16
2019-05-26T13:07:26.888Z,27.18
2019-05-26T13:08:26.862Z,26.96
2019-05-26T13:09:26.919Z,27.3
2019-05-26T13:10:27.174Z,27.04
2019-05-26T13:11:28.204Z,26.86
2019-05-26T13:12:26.913Z,26.27
2019-05-26T13:13:26.895Z,26.6
2019-05-26T13:14:26.920Z,26.74
2019-05-26T13:15:26.861Z,27.11
2019-05-26T13:16:26.941Z,26.73